Terminal Aerodrome Forecast
Issued by NWS

Home | Current Version | Previous Version | Text Only | Print | Product List | Glossary On
Versions: 1 2 3 4 5 6 7 8 9 10 11 12 13 14 15 16 17 18 19 20 21 22
159
FTUS43 KEAX 300520
TAFSTJ
TAF
KSTJ 300520Z 3006/0106 08014G21KT P6SM -SHRA OVC007
     FM301000 08012KT 5SM BR VCSH OVC007
      TEMPO 3013/3016 4SM BR OVC003
     FM301900 30010KT P6SM OVC015
     FM302300 04007KT P6SM OVC015=

USA.gov is the U.S. government's official web portal to all federal, state and local government web resources and services.